sensor_id;sensor_type;location;lat;lon;timestamp;temperature;humidity
9965;DHT22;5023;53.554;9.964;2023-11-21T00:04:23;9.80;99.90
9965;DHT22;5023;53.554;9.964;2023-11-21T00:09:25;9.70;99.90
9965;DHT22;5023;53.554;9.964;2023-11-21T00:14:28;9.60;99.90
9965;DHT22;5023;53.554;9.964;2023-11-21T00:19:30;9.60;99.90
9965;DHT22;5023;53.554;9.964;2023-11-21T00:24:32;9.50;99.90
9965;DHT22;5023;53.554;9.964;2023-11-21T00:29:35;9.40;99.90
9965;DHT22;5023;53.554;9.964;2023-11-21T00:34:37;9.10;99.90
9965;DHT22;5023;53.554;9.964;2023-11-21T00:39:39;9.00;99.90
9965;DHT22;5023;53.554;9.964;2023-11-21T00:44:43;8.90;99.90
9965;DHT22;5023;53.554;9.964;2023-11-21T00:49:45;8.80;99.90
9965;DHT22;5023;53.554;9.964;2023-11-21T00:54:47;8.80;99.90
9965;DHT22;5023;53.554;9.964;2023-11-21T00:59:51;8.70;99.90
9965;DHT22;5023;53.554;9.964;2023-11-21T01:04:53;8.50;99.90
9965;DHT22;5023;53.554;9.964;2023-11-21T01:09:55;8.50;99.90
9965;DHT22;5023;53.554;9.964;2023-11-21T01:14:58;8.40;99.90
9965;DHT22;5023;53.554;9.964;2023-11-21T01:20:01;8.40;99.90
9965;DHT22;5023;53.554;9.964;2023-11-21T01:25:07;8.40;99.90
9965;DHT22;5023;53.554;9.964;2023-11-21T01:30:10;8.30;99.90
9965;DHT22;5023;53.554;9.964;2023-11-21T01:35:12;8.30;99.90
9965;DHT22;5023;53.554;9.964;2023-11-21T01:40:14;8.10;99.90
9965;DHT22;5023;53.554;9.964;2023-11-21T01:45:17;8.10;99.90
9965;DHT22;5023;53.554;9.964;2023-11-21T01:50:20;8.10;99.90
9965;DHT22;5023;53.554;9.964;2023-11-21T01:55:23;8.00;99.90
9965;DHT22;5023;53.554;9.964;2023-11-21T02:12:20;8.10;99.90
9965;DHT22;5023;53.554;9.964;2023-11-21T02:17:22;8.00;99.90
9965;DHT22;5023;53.554;9.964;2023-11-21T02:22:26;8.00;99.90
9965;DHT22;5023;53.554;9.964;2023-11-21T02:27:30;8.00;99.90
9965;DHT22;5023;53.554;9.964;2023-11-21T02:32:32;7.90;99.90
9965;DHT22;5023;53.554;9.964;2023-11-21T02:37:35;7.90;99.90
9965;DHT22;5023;53.554;9.964;2023-11-21T02:42:38;7.90;99.90
9965;DHT22;5023;53.554;9.964;2023-11-21T02:47:40;7.90;99.90
9965;DHT22;5023;53.554;9.964;2023-11-21T02:52:42;7.90;99.90
9965;DHT22;5023;53.554;9.964;2023-11-21T02:57:45;7.80;99.90
9965;DHT22;5023;53.554;9.964;2023-11-21T03:02:47;7.90;99.90
9965;DHT22;5023;53.554;9.964;2023-11-21T03:07:49;7.90;99.90
9965;DHT22;5023;53.554;9.964;2023-11-21T03:12:52;7.90;99.90
9965;DHT22;5023;53.554;9.964;2023-11-21T03:17:54;7.80;99.90
9965;DHT22;5023;53.554;9.964;2023-11-21T03:22:57;7.80;99.90
9965;DHT22;5023;53.554;9.964;2023-11-21T03:28:01;7.80;99.90
9965;DHT22;5023;53.554;9.964;2023-11-21T03:33:03;7.80;99.90
9965;DHT22;5023;53.554;9.964;2023-11-21T03:38:05;7.80;99.90
9965;DHT22;5023;53.554;9.964;2023-11-21T03:43:08;7.70;99.90
9965;DHT22;5023;53.554;9.964;2023-11-21T03:48:12;7.80;99.90
9965;DHT22;5023;53.554;9.964;2023-11-21T03:53:14;7.70;99.90
9965;DHT22;5023;53.554;9.964;2023-11-21T03:58:18;7.70;99.90
9965;DHT22;5023;53.554;9.964;2023-11-21T04:03:19;7.80;99.90
9965;DHT22;5023;53.554;9.964;2023-11-21T04:08:21;7.70;99.90
9965;DHT22;5023;53.554;9.964;2023-11-21T04:20:12;7.70;99.90
9965;DHT22;5023;53.554;9.964;2023-11-21T05:01:19;7.50;99.90
9965;DHT22;5023;53.554;9.964;2023-11-21T05:06:21;7.60;99.90
9965;DHT22;5023;53.554;9.964;2023-11-21T05:11:25;7.60;99.90
9965;DHT22;5023;53.554;9.964;2023-11-21T05:16:28;7.60;99.90
9965;DHT22;5023;53.554;9.964;2023-11-21T05:27:26;7.50;99.90
9965;DHT22;5023;53.554;9.964;2023-11-21T05:32:29;7.60;99.90
9965;DHT22;5023;53.554;9.964;2023-11-21T05:37:31;7.60;99.90
9965;DHT22;5023;53.554;9.964;2023-11-21T05:42:34;7.60;99.90
9965;DHT22;5023;53.554;9.964;2023-11-21T05:47:38;7.50;99.90
9965;DHT22;5023;53.554;9.964;2023-11-21T05:52:48;7.50;99.90
9965;DHT22;5023;53.554;9.964;2023-11-21T05:57:50;7.50;99.90
9965;DHT22;5023;53.554;9.964;2023-11-21T06:02:53;7.50;99.90
9965;DHT22;5023;53.554;9.964;2023-11-21T06:07:58;7.60;99.90
9965;DHT22;5023;53.554;9.964;2023-11-21T06:13:01;7.50;99.90
9965;DHT22;5023;53.554;9.964;2023-11-21T06:18:05;7.60;99.90
9965;DHT22;5023;53.554;9.964;2023-11-21T06:23:16;7.60;99.90
9965;DHT22;5023;53.554;9.964;2023-11-21T07:33:44;7.70;99.90
9965;DHT22;5023;53.554;9.964;2023-11-21T07:38:47;7.80;99.90
9965;DHT22;5023;53.554;9.964;2023-11-21T07:43:49;7.80;99.90
9965;DHT22;5023;53.554;9.964;2023-11-21T08:12:40;7.80;99.90
9965;DHT22;5023;53.554;9.964;2023-11-21T08:29:38;7.80;99.90
9965;DHT22;5023;53.554;9.964;2023-11-21T08:34:40;7.90;99.90
9965;DHT22;5023;53.554;9.964;2023-11-21T08:40:11;7.90;99.90
9965;DHT22;5023;53.554;9.964;2023-11-21T08:45:18;8.00;99.90
9965;DHT22;5023;53.554;9.964;2023-11-21T08:50:23;8.00;99.90
9965;DHT22;5023;53.554;9.964;2023-11-21T08:55:25;8.00;99.90
9965;DHT22;5023;53.554;9.964;2023-11-21T09:00:31;8.00;99.90
9965;DHT22;5023;53.554;9.964;2023-11-21T09:05:34;7.90;99.90
9965;DHT22;5023;53.554;9.964;2023-11-21T09:16:35;7.90;99.90
9965;DHT22;5023;53.554;9.964;2023-11-21T09:27:35;8.00;99.90
9965;DHT22;5023;53.554;9.964;2023-11-21T09:32:39;8.00;99.90
9965;DHT22;5023;53.554;9.964;2023-11-21T09:55:38;7.90;99.90
9965;DHT22;5023;53.554;9.964;2023-11-21T10:00:53;8.00;99.90
9965;DHT22;5023;53.554;9.964;2023-11-21T10:06:29;8.10;99.90
9965;DHT22;5023;53.554;9.964;2023-11-21T10:17:49;8.10;99.90
9965;DHT22;5023;53.554;9.964;2023-11-21T10:46:23;8.20;99.90
9965;DHT22;5023;53.554;9.964;2023-11-21T10:51:26;8.20;99.90
9965;DHT22;5023;53.554;9.964;2023-11-21T10:56:33;8.20;99.90
9965;DHT22;5023;53.554;9.964;2023-11-21T11:01:45;8.20;99.90
9965;DHT22;5023;53.554;9.964;2023-11-21T11:06:51;8.20;99.90
9965;DHT22;5023;53.554;9.964;2023-11-21T11:11:57;8.10;99.90
9965;DHT22;5023;53.554;9.964;2023-11-21T11:17:02;8.00;99.90
9965;DHT22;5023;53.554;9.964;2023-11-21T11:22:15;8.10;99.90
9965;DHT22;5023;53.554;9.964;2023-11-21T11:27:27;8.20;99.90
9965;DHT22;5023;53.554;9.964;2023-11-21T11:32:40;8.20;99.90
9965;DHT22;5023;53.554;9.964;2023-11-21T11:37:45;8.10;99.90
9965;DHT22;5023;53.554;9.964;2023-11-21T11:42:56;8.00;99.90
9965;DHT22;5023;53.554;9.964;2023-11-21T11:48:02;8.00;99.90
9965;DHT22;5023;53.554;9.964;2023-11-21T11:53:12;8.00;99.90
9965;DHT22;5023;53.554;9.964;2023-11-21T11:58:14;8.10;99.90
9965;DHT22;5023;53.554;9.964;2023-11-21T12:03:19;8.20;99.90
9965;DHT22;5023;53.554;9.964;2023-11-21T12:08:21;8.10;99.90
9965;DHT22;5023;53.554;9.964;2023-11-21T12:13:31;8.20;99.90
9965;DHT22;5023;53.554;9.964;2023-11-21T12:18:34;8.20;99.90
9965;DHT22;5023;53.554;9.964;2023-11-21T12:23:38;8.10;99.90
9965;DHT22;5023;53.554;9.964;2023-11-21T12:28:41;8.10;99.90
9965;DHT22;5023;53.554;9.964;2023-11-21T12:33:45;8.10;99.90
9965;DHT22;5023;53.554;9.964;2023-11-21T12:38:48;8.00;99.90
9965;DHT22;5023;53.554;9.964;2023-11-21T12:43:50;7.80;99.90
9965;DHT22;5023;53.554;9.964;2023-11-21T12:48:53;7.80;99.90
9965;DHT22;5023;53.554;9.964;2023-11-21T12:53:57;7.80;99.90
9965;DHT22;5023;53.554;9.964;2023-11-21T12:59:22;7.90;99.90
9965;DHT22;5023;53.554;9.964;2023-11-21T13:40:47;7.40;99.90
9965;DHT22;5023;53.554;9.964;2023-11-21T13:45:54;7.40;99.90
9965;DHT22;5023;53.554;9.964;2023-11-21T13:51:01;7.40;99.90
9965;DHT22;5023;53.554;9.964;2023-11-21T13:56:15;7.40;99.90
9965;DHT22;5023;53.554;9.964;2023-11-21T14:01:22;7.40;99.90
9965;DHT22;5023;53.554;9.964;2023-11-21T14:06:46;7.40;99.90
9965;DHT22;5023;53.554;9.964;2023-11-21T14:11:52;7.50;99.90
9965;DHT22;5023;53.554;9.964;2023-11-21T14:16:54;7.40;99.90
9965;DHT22;5023;53.554;9.964;2023-11-21T14:21:56;7.30;99.90
9965;DHT22;5023;53.554;9.964;2023-11-21T14:27:01;7.30;99.90
9965;DHT22;5023;53.554;9.964;2023-11-21T14:32:07;7.20;99.90
9965;DHT22;5023;53.554;9.964;2023-11-21T14:37:09;7.10;99.90
9965;DHT22;5023;53.554;9.964;2023-11-21T14:42:15;7.20;99.90
9965;DHT22;5023;53.554;9.964;2023-11-21T14:47:24;7.10;99.90
9965;DHT22;5023;53.554;9.964;2023-11-21T14:52:27;7.00;99.90
9965;DHT22;5023;53.554;9.964;2023-11-21T14:57:37;6.90;99.90
9965;DHT22;5023;53.554;9.964;2023-11-21T15:02:39;7.00;99.90
9965;DHT22;5023;53.554;9.964;2023-11-21T15:07:50;7.00;99.90
9965;DHT22;5023;53.554;9.964;2023-11-21T15:12:57;7.00;99.90
9965;DHT22;5023;53.554;9.964;2023-11-21T15:17:59;7.00;99.90
9965;DHT22;5023;53.554;9.964;2023-11-21T15:23:02;6.80;99.90
9965;DHT22;5023;53.554;9.964;2023-11-21T15:28:07;6.80;99.90
9965;DHT22;5023;53.554;9.964;2023-11-21T15:33:09;6.80;99.90
9965;DHT22;5023;53.554;9.964;2023-11-21T15:38:12;6.60;99.90
9965;DHT22;5023;53.554;9.964;2023-11-21T15:43:16;6.60;99.90
9965;DHT22;5023;53.554;9.964;2023-11-21T15:48:18;6.70;99.90
9965;DHT22;5023;53.554;9.964;2023-11-21T15:53:19;6.60;99.90
9965;DHT22;5023;53.554;9.964;2023-11-21T15:58:23;6.40;99.90
9965;DHT22;5023;53.554;9.964;2023-11-21T16:03:26;6.40;99.90
9965;DHT22;5023;53.554;9.964;2023-11-21T16:08:30;6.50;99.90
9965;DHT22;5023;53.554;9.964;2023-11-21T16:13:34;6.40;99.90
9965;DHT22;5023;53.554;9.964;2023-11-21T16:18:36;6.50;99.90
9965;DHT22;5023;53.554;9.964;2023-11-21T16:23:38;6.60;99.90
9965;DHT22;5023;53.554;9.964;2023-11-21T16:28:42;6.70;99.90
9965;DHT22;5023;53.554;9.964;2023-11-21T16:33:44;6.60;99.90
9965;DHT22;5023;53.554;9.964;2023-11-21T16:38:46;6.60;99.90
9965;DHT22;5023;53.554;9.964;2023-11-21T16:43:49;6.50;99.90
9965;DHT22;5023;53.554;9.964;2023-11-21T16:48:51;6.50;99.90
9965;DHT22;5023;53.554;9.964;2023-11-21T16:53:53;6.50;99.90
9965;DHT22;5023;53.554;9.964;2023-11-21T16:58:57;6.50;99.90
9965;DHT22;5023;53.554;9.964;2023-11-21T17:04:00;6.60;99.90
9965;DHT22;5023;53.554;9.964;2023-11-21T17:09:03;6.60;99.90
9965;DHT22;5023;53.554;9.964;2023-11-21T17:14:11;6.60;99.90
9965;DHT22;5023;53.554;9.964;2023-11-21T17:19:14;6.50;99.90
9965;DHT22;5023;53.554;9.964;2023-11-21T17:24:15;6.60;99.90
9965;DHT22;5023;53.554;9.964;2023-11-21T17:29:19;6.50;99.90
9965;DHT22;5023;53.554;9.964;2023-11-21T17:34:21;6.30;99.90
9965;DHT22;5023;53.554;9.964;2023-11-21T17:39:23;6.10;99.90
9965;DHT22;5023;53.554;9.964;2023-11-21T17:44:26;6.00;99.90
9965;DHT22;5023;53.554;9.964;2023-11-21T17:49:29;6.00;99.90
9965;DHT22;5023;53.554;9.964;2023-11-21T17:54:47;5.90;99.90
9965;DHT22;5023;53.554;9.964;2023-11-21T17:59:52;5.90;99.90
9965;DHT22;5023;53.554;9.964;2023-11-21T18:04:55;6.10;99.90
9965;DHT22;5023;53.554;9.964;2023-11-21T18:10:00;5.80;99.90
9965;DHT22;5023;53.554;9.964;2023-11-21T18:15:04;5.80;99.90
9965;DHT22;5023;53.554;9.964;2023-11-21T18:20:08;5.90;99.90
9965;DHT22;5023;53.554;9.964;2023-11-21T18:25:11;5.80;99.90
9965;DHT22;5023;53.554;9.964;2023-11-21T18:30:15;5.80;99.90
9965;DHT22;5023;53.554;9.964;2023-11-21T18:35:17;5.80;99.90
9965;DHT22;5023;53.554;9.964;2023-11-21T18:40:19;5.80;99.90
9965;DHT22;5023;53.554;9.964;2023-11-21T18:45:23;5.80;99.90
9965;DHT22;5023;53.554;9.964;2023-11-21T18:50:28;5.80;99.90
9965;DHT22;5023;53.554;9.964;2023-11-21T18:55:30;5.80;99.90
9965;DHT22;5023;53.554;9.964;2023-11-21T19:00:33;5.80;99.90
9965;DHT22;5023;53.554;9.964;2023-11-21T19:05:37;5.90;99.90
9965;DHT22;5023;53.554;9.964;2023-11-21T19:10:39;5.80;99.90
9965;DHT22;5023;53.554;9.964;2023-11-21T19:15:43;5.80;99.90
9965;DHT22;5023;53.554;9.964;2023-11-21T19:20:47;5.70;99.90
9965;DHT22;5023;53.554;9.964;2023-11-21T19:25:49;5.70;99.90
9965;DHT22;5023;53.554;9.964;2023-11-21T19:30:53;5.80;99.90
9965;DHT22;5023;53.554;9.964;2023-11-21T19:35:57;5.70;99.90
9965;DHT22;5023;53.554;9.964;2023-11-21T19:40:59;5.70;99.90
9965;DHT22;5023;53.554;9.964;2023-11-21T19:46:03;5.70;99.90
9965;DHT22;5023;53.554;9.964;2023-11-21T19:51:05;5.70;99.90
9965;DHT22;5023;53.554;9.964;2023-11-21T19:57:10;5.60;99.90
9965;DHT22;5023;53.554;9.964;2023-11-21T20:02:24;5.50;99.90
9965;DHT22;5023;53.554;9.964;2023-11-21T20:07:33;5.50;99.90
9965;DHT22;5023;53.554;9.964;2023-11-21T20:12:36;5.50;99.90
9965;DHT22;5023;53.554;9.964;2023-11-21T20:17:40;5.40;99.90
9965;DHT22;5023;53.554;9.964;2023-11-21T20:22:46;5.40;99.90
9965;DHT22;5023;53.554;9.964;2023-11-21T20:27:49;5.30;99.90
9965;DHT22;5023;53.554;9.964;2023-11-21T20:32:54;5.40;99.90
9965;DHT22;5023;53.554;9.964;2023-11-21T20:37:56;5.40;99.90
9965;DHT22;5023;53.554;9.964;2023-11-21T20:42:58;5.40;99.90
9965;DHT22;5023;53.554;9.964;2023-11-21T20:48:05;5.40;99.90
9965;DHT22;5023;53.554;9.964;2023-11-21T20:53:08;5.30;99.90
9965;DHT22;5023;53.554;9.964;2023-11-21T20:58:11;5.30;99.90
9965;DHT22;5023;53.554;9.964;2023-11-21T21:03:15;5.20;99.90
9965;DHT22;5023;53.554;9.964;2023-11-21T21:08:21;5.20;99.90
9965;DHT22;5023;53.554;9.964;2023-11-21T21:13:26;5.10;99.90
9965;DHT22;5023;53.554;9.964;2023-11-21T21:18:30;5.00;99.90
9965;DHT22;5023;53.554;9.964;2023-11-21T21:23:32;5.00;99.90
9965;DHT22;5023;53.554;9.964;2023-11-21T21:28:34;5.00;99.90
9965;DHT22;5023;53.554;9.964;2023-11-21T21:33:38;5.00;99.90
9965;DHT22;5023;53.554;9.964;2023-11-21T21:38:41;5.00;99.90
9965;DHT22;5023;53.554;9.964;2023-11-21T21:43:44;5.10;99.90
9965;DHT22;5023;53.554;9.964;2023-11-21T21:48:47;5.10;99.90
9965;DHT22;5023;53.554;9.964;2023-11-21T21:53:49;5.10;99.90
9965;DHT22;5023;53.554;9.964;2023-11-21T21:58:51;5.10;99.90
9965;DHT22;5023;53.554;9.964;2023-11-21T22:03:55;5.00;99.90
9965;DHT22;5023;53.554;9.964;2023-11-21T22:09:00;5.00;99.90
9965;DHT22;5023;53.554;9.964;2023-11-21T22:14:03;4.90;99.90
9965;DHT22;5023;53.554;9.964;2023-11-21T22:19:07;4.90;99.90
9965;DHT22;5023;53.554;9.964;2023-11-21T22:24:10;4.90;99.90
9965;DHT22;5023;53.554;9.964;2023-11-21T22:29:12;4.90;99.90
9965;DHT22;5023;53.554;9.964;2023-11-21T22:34:16;4.90;99.90
9965;DHT22;5023;53.554;9.964;2023-11-21T22:39:21;4.80;99.90
9965;DHT22;5023;53.554;9.964;2023-11-21T22:44:22;4.60;99.90
9965;DHT22;5023;53.554;9.964;2023-11-21T22:49:26;4.80;99.90
9965;DHT22;5023;53.554;9.964;2023-11-21T22:54:28;5.00;99.90
9965;DHT22;5023;53.554;9.964;2023-11-21T22:59:31;4.90;99.90
9965;DHT22;5023;53.554;9.964;2023-11-21T23:04:34;4.90;99.90
9965;DHT22;5023;53.554;9.964;2023-11-21T23:09:36;4.90;99.90
9965;DHT22;5023;53.554;9.964;2023-11-21T23:14:38;4.90;99.90
9965;DHT22;5023;53.554;9.964;2023-11-21T23:19:41;4.80;99.90
9965;DHT22;5023;53.554;9.964;2023-11-21T23:24:43;4.80;99.90
9965;DHT22;5023;53.554;9.964;2023-11-21T23:29:45;4.80;99.90
9965;DHT22;5023;53.554;9.964;2023-11-21T23:34:53;4.70;99.90
9965;DHT22;5023;53.554;9.964;2023-11-21T23:39:55;4.70;99.90
9965;DHT22;5023;53.554;9.964;2023-11-21T23:44:59;4.70;99.90
9965;DHT22;5023;53.554;9.964;2023-11-21T23:50:03;4.80;99.90
9965;DHT22;5023;53.554;9.964;2023-11-21T23:55:06;4.60;99.90
